sensor_id;sensor_type;location;lat;lon;timestamp;P1;durP1;ratioP1;P2;durP2;ratioP2
49942;SDS011;36011;53.362;58.948;2024-03-29T00:02:38;8.18;;;4.47;;
49942;SDS011;36011;53.362;58.948;2024-03-29T00:05:40;5.85;;;4.30;;
49942;SDS011;36011;53.362;58.948;2024-03-29T00:08:41;5.63;;;4.00;;
49942;SDS011;36011;53.362;58.948;2024-03-29T00:11:45;5.38;;;3.75;;
49942;SDS011;36011;53.362;58.948;2024-03-29T00:14:49;7.03;;;4.10;;
49942;SDS011;36011;53.362;58.948;2024-03-29T00:17:54;4.15;;;3.33;;
49942;SDS011;36011;53.362;58.948;2024-03-29T00:20:58;4.03;;;3.20;;
49942;SDS011;36011;53.362;58.948;2024-03-29T00:24:00;4.03;;;2.92;;
49942;SDS011;36011;53.362;58.948;2024-03-29T00:27:01;4.40;;;2.88;;
49942;SDS011;36011;53.362;58.948;2024-03-29T00:30:08;2.65;;;1.85;;
49942;SDS011;36011;53.362;58.948;2024-03-29T00:33:09;2.03;;;1.55;;
49942;SDS011;36011;53.362;58.948;2024-03-29T00:36:14;1.80;;;1.40;;
49942;SDS011;36011;53.362;58.948;2024-03-29T00:39:17;1.45;;;1.30;;
49942;SDS011;36011;53.362;58.948;2024-03-29T00:42:19;1.10;;;0.90;;
49942;SDS011;36011;53.362;58.948;2024-03-29T00:45:21;1.00;;;0.90;;
49942;SDS011;36011;53.362;58.948;2024-03-29T00:48:25;1.10;;;1.00;;
49942;SDS011;36011;53.362;58.948;2024-03-29T00:51:27;1.10;;;0.90;;
49942;SDS011;36011;53.362;58.948;2024-03-29T00:54:31;2.08;;;0.80;;
49942;SDS011;36011;53.362;58.948;2024-03-29T00:57:35;1.30;;;0.90;;
49942;SDS011;36011;53.362;58.948;2024-03-29T01:00:39;1.20;;;1.10;;
49942;SDS011;36011;53.362;58.948;2024-03-29T01:03:47;0.82;;;0.73;;
49942;SDS011;36011;53.362;58.948;2024-03-29T01:06:49;1.20;;;1.00;;
49942;SDS011;36011;53.362;58.948;2024-03-29T01:09:53;0.80;;;0.80;;
49942;SDS011;36011;53.362;58.948;2024-03-29T01:16:01;0.90;;;0.90;;
49942;SDS011;36011;53.362;58.948;2024-03-29T01:22:24;1.10;;;1.00;;
49942;SDS011;36011;53.362;58.948;2024-03-29T01:25:27;1.30;;;1.20;;
49942;SDS011;36011;53.362;58.948;2024-03-29T01:28:30;1.05;;;0.90;;
49942;SDS011;36011;53.362;58.948;2024-03-29T01:31:33;1.02;;;0.90;;
49942;SDS011;36011;53.362;58.948;2024-03-29T01:34:37;1.20;;;1.10;;
49942;SDS011;36011;53.362;58.948;2024-03-29T01:37:44;0.60;;;0.50;;
49942;SDS011;36011;53.362;58.948;2024-03-29T01:40:47;0.85;;;0.85;;
49942;SDS011;36011;53.362;58.948;2024-03-29T01:43:51;0.90;;;0.90;;
49942;SDS011;36011;53.362;58.948;2024-03-29T01:46:56;1.52;;;1.30;;
49942;SDS011;36011;53.362;58.948;2024-03-29T01:50:02;1.30;;;1.20;;
49942;SDS011;36011;53.362;58.948;2024-03-29T01:53:06;1.42;;;1.17;;
49942;SDS011;36011;53.362;58.948;2024-03-29T01:56:11;1.98;;;1.25;;
49942;SDS011;36011;53.362;58.948;2024-03-29T01:59:16;0.90;;;0.90;;
49942;SDS011;36011;53.362;58.948;2024-03-29T02:02:18;3.05;;;1.50;;
49942;SDS011;36011;53.362;58.948;2024-03-29T02:05:20;0.90;;;0.90;;
49942;SDS011;36011;53.362;58.948;2024-03-29T02:08:26;1.52;;;1.40;;
49942;SDS011;36011;53.362;58.948;2024-03-29T02:11:35;1.30;;;1.20;;
49942;SDS011;36011;53.362;58.948;2024-03-29T02:14:37;1.52;;;1.40;;
49942;SDS011;36011;53.362;58.948;2024-03-29T02:17:41;1.20;;;1.05;;
49942;SDS011;36011;53.362;58.948;2024-03-29T02:20:43;1.23;;;1.13;;
49942;SDS011;36011;53.362;58.948;2024-03-29T02:23:47;1.30;;;1.10;;
49942;SDS011;36011;53.362;58.948;2024-03-29T02:26:55;1.50;;;1.40;;
49942;SDS011;36011;53.362;58.948;2024-03-29T02:29:59;2.05;;;1.58;;
49942;SDS011;36011;53.362;58.948;2024-03-29T02:33:05;1.75;;;1.42;;
49942;SDS011;36011;53.362;58.948;2024-03-29T02:36:07;2.08;;;1.80;;
49942;SDS011;36011;53.362;58.948;2024-03-29T02:39:09;2.20;;;1.63;;
49942;SDS011;36011;53.362;58.948;2024-03-29T02:45:16;1.50;;;1.40;;
49942;SDS011;36011;53.362;58.948;2024-03-29T02:48:21;1.65;;;1.25;;
49942;SDS011;36011;53.362;58.948;2024-03-29T02:51:25;1.85;;;1.75;;
49942;SDS011;36011;53.362;58.948;2024-03-29T02:54:30;1.95;;;1.63;;
49942;SDS011;36011;53.362;58.948;2024-03-29T02:57:31;2.05;;;1.85;;
49942;SDS011;36011;53.362;58.948;2024-03-29T03:00:35;1.75;;;1.65;;
49942;SDS011;36011;53.362;58.948;2024-03-29T03:03:38;1.70;;;1.52;;
49942;SDS011;36011;53.362;58.948;2024-03-29T03:06:44;2.63;;;2.00;;
49942;SDS011;36011;53.362;58.948;2024-03-29T03:09:48;2.08;;;1.70;;
49942;SDS011;36011;53.362;58.948;2024-03-29T03:13:09;4.93;;;3.05;;
49942;SDS011;36011;53.362;58.948;2024-03-29T03:16:13;3.70;;;2.13;;
49942;SDS011;36011;53.362;58.948;2024-03-29T03:19:21;2.38;;;1.75;;
49942;SDS011;36011;53.362;58.948;2024-03-29T03:22:25;3.28;;;2.05;;
49942;SDS011;36011;53.362;58.948;2024-03-29T03:25:29;2.38;;;2.00;;
49942;SDS011;36011;53.362;58.948;2024-03-29T03:28:30;2.58;;;2.20;;
49942;SDS011;36011;53.362;58.948;2024-03-29T03:31:34;1.98;;;1.80;;
49942;SDS011;36011;53.362;58.948;2024-03-29T03:34:35;2.08;;;1.60;;
49942;SDS011;36011;53.362;58.948;2024-03-29T03:37:38;2.40;;;1.90;;
49942;SDS011;36011;53.362;58.948;2024-03-29T03:40:42;2.50;;;1.70;;
49942;SDS011;36011;53.362;58.948;2024-03-29T03:43:47;2.72;;;2.03;;
49942;SDS011;36011;53.362;58.948;2024-03-29T03:46:51;2.50;;;2.00;;
49942;SDS011;36011;53.362;58.948;2024-03-29T03:49:52;1.95;;;1.75;;
49942;SDS011;36011;53.362;58.948;2024-03-29T03:52:59;1.75;;;1.65;;
49942;SDS011;36011;53.362;58.948;2024-03-29T03:56:03;2.97;;;1.83;;
49942;SDS011;36011;53.362;58.948;2024-03-29T03:59:07;2.00;;;1.80;;
49942;SDS011;36011;53.362;58.948;2024-03-29T04:02:09;2.03;;;1.75;;
49942;SDS011;36011;53.362;58.948;2024-03-29T04:05:13;1.60;;;1.50;;
49942;SDS011;36011;53.362;58.948;2024-03-29T04:11:23;2.30;;;1.90;;
49942;SDS011;36011;53.362;58.948;2024-03-29T04:14:25;1.73;;;1.58;;
49942;SDS011;36011;53.362;58.948;2024-03-29T04:17:29;1.42;;;1.33;;
49942;SDS011;36011;53.362;58.948;2024-03-29T04:20:34;2.42;;;1.75;;
49942;SDS011;36011;53.362;58.948;2024-03-29T04:23:39;1.73;;;1.38;;
49942;SDS011;36011;53.362;58.948;2024-03-29T04:26:44;1.25;;;1.15;;
49942;SDS011;36011;53.362;58.948;2024-03-29T04:32:54;1.60;;;1.27;;
49942;SDS011;36011;53.362;58.948;2024-03-29T04:35:58;2.58;;;1.30;;
49942;SDS011;36011;53.362;58.948;2024-03-29T04:39:09;2.03;;;1.50;;
49942;SDS011;36011;53.362;58.948;2024-03-29T04:42:13;1.40;;;1.00;;
49942;SDS011;36011;53.362;58.948;2024-03-29T04:45:20;1.65;;;0.98;;
49942;SDS011;36011;53.362;58.948;2024-03-29T04:48:25;2.03;;;1.30;;
49942;SDS011;36011;53.362;58.948;2024-03-29T04:51:26;1.90;;;1.30;;
49942;SDS011;36011;53.362;58.948;2024-03-29T04:54:33;1.50;;;1.10;;
49942;SDS011;36011;53.362;58.948;2024-03-29T04:57:35;1.98;;;1.33;;
49942;SDS011;36011;53.362;58.948;2024-03-29T05:00:42;1.95;;;1.15;;
49942;SDS011;36011;53.362;58.948;2024-03-29T05:03:45;1.30;;;0.98;;
49942;SDS011;36011;53.362;58.948;2024-03-29T05:06:49;3.33;;;1.02;;
49942;SDS011;36011;53.362;58.948;2024-03-29T05:09:50;3.25;;;1.83;;
49942;SDS011;36011;53.362;58.948;2024-03-29T05:12:54;1.30;;;1.15;;
49942;SDS011;36011;53.362;58.948;2024-03-29T05:15:58;0.73;;;0.73;;
49942;SDS011;36011;53.362;58.948;2024-03-29T05:19:02;1.27;;;1.15;;
49942;SDS011;36011;53.362;58.948;2024-03-29T05:22:06;1.20;;;1.10;;
49942;SDS011;36011;53.362;58.948;2024-03-29T05:25:13;0.75;;;0.73;;
49942;SDS011;36011;53.362;58.948;2024-03-29T05:28:20;1.20;;;1.10;;
49942;SDS011;36011;53.362;58.948;2024-03-29T05:31:24;1.38;;;1.25;;
49942;SDS011;36011;53.362;58.948;2024-03-29T05:34:27;1.52;;;1.10;;
49942;SDS011;36011;53.362;58.948;2024-03-29T05:37:31;2.20;;;1.40;;
49942;SDS011;36011;53.362;58.948;2024-03-29T05:40:39;2.65;;;1.33;;
49942;SDS011;36011;53.362;58.948;2024-03-29T05:43:45;1.77;;;1.33;;
49942;SDS011;36011;53.362;58.948;2024-03-29T05:46:49;1.60;;;1.30;;
49942;SDS011;36011;53.362;58.948;2024-03-29T05:49:51;1.52;;;1.40;;
49942;SDS011;36011;53.362;58.948;2024-03-29T05:52:55;1.65;;;1.15;;
49942;SDS011;36011;53.362;58.948;2024-03-29T05:55:57;1.27;;;1.00;;
49942;SDS011;36011;53.362;58.948;2024-03-29T05:59:01;2.38;;;1.40;;
49942;SDS011;36011;53.362;58.948;2024-03-29T06:02:05;1.63;;;1.10;;
49942;SDS011;36011;53.362;58.948;2024-03-29T06:05:09;2.50;;;1.02;;
49942;SDS011;36011;53.362;58.948;2024-03-29T06:08:13;1.58;;;0.95;;
49942;SDS011;36011;53.362;58.948;2024-03-29T06:11:19;1.50;;;1.23;;
49942;SDS011;36011;53.362;58.948;2024-03-29T06:14:22;1.15;;;0.88;;
49942;SDS011;36011;53.362;58.948;2024-03-29T06:17:42;2.60;;;1.27;;
49942;SDS011;36011;53.362;58.948;2024-03-29T06:20:47;2.65;;;1.23;;
49942;SDS011;36011;53.362;58.948;2024-03-29T06:23:52;0.98;;;0.85;;
49942;SDS011;36011;53.362;58.948;2024-03-29T06:26:53;2.42;;;1.33;;
49942;SDS011;36011;53.362;58.948;2024-03-29T06:29:54;2.95;;;1.38;;
49942;SDS011;36011;53.362;58.948;2024-03-29T06:32:59;1.58;;;1.40;;
49942;SDS011;36011;53.362;58.948;2024-03-29T06:36:04;1.50;;;0.98;;
49942;SDS011;36011;53.362;58.948;2024-03-29T06:39:07;2.30;;;1.40;;
49942;SDS011;36011;53.362;58.948;2024-03-29T06:42:09;2.60;;;1.37;;
49942;SDS011;36011;53.362;58.948;2024-03-29T06:45:11;1.67;;;1.20;;
49942;SDS011;36011;53.362;58.948;2024-03-29T06:48:14;1.20;;;1.10;;
49942;SDS011;36011;53.362;58.948;2024-03-29T06:51:18;1.10;;;0.70;;
49942;SDS011;36011;53.362;58.948;2024-03-29T06:54:23;1.33;;;1.00;;
49942;SDS011;36011;53.362;58.948;2024-03-29T06:57:27;2.75;;;1.02;;
49942;SDS011;36011;53.362;58.948;2024-03-29T07:00:32;1.23;;;1.05;;
49942;SDS011;36011;53.362;58.948;2024-03-29T07:03:36;1.83;;;1.10;;
49942;SDS011;36011;53.362;58.948;2024-03-29T07:06:38;1.80;;;1.08;;
49942;SDS011;36011;53.362;58.948;2024-03-29T07:09:40;1.35;;;0.93;;
49942;SDS011;36011;53.362;58.948;2024-03-29T07:12:46;1.38;;;1.15;;
49942;SDS011;36011;53.362;58.948;2024-03-29T07:15:52;0.80;;;0.80;;
49942;SDS011;36011;53.362;58.948;2024-03-29T07:18:54;1.83;;;1.15;;
49942;SDS011;36011;53.362;58.948;2024-03-29T07:21:55;1.10;;;0.98;;
49942;SDS011;36011;53.362;58.948;2024-03-29T07:24:57;0.98;;;0.80;;
49942;SDS011;36011;53.362;58.948;2024-03-29T07:28:03;1.33;;;0.75;;
49942;SDS011;36011;53.362;58.948;2024-03-29T07:31:05;0.88;;;0.75;;
49942;SDS011;36011;53.362;58.948;2024-03-29T07:34:10;1.52;;;1.00;;
49942;SDS011;36011;53.362;58.948;2024-03-29T07:37:16;2.28;;;0.80;;
49942;SDS011;36011;53.362;58.948;2024-03-29T07:40:19;0.70;;;0.70;;
49942;SDS011;36011;53.362;58.948;2024-03-29T07:43:23;1.90;;;1.00;;
49942;SDS011;36011;53.362;58.948;2024-03-29T07:46:32;1.30;;;0.65;;
49942;SDS011;36011;53.362;58.948;2024-03-29T07:49:34;1.40;;;0.93;;
49942;SDS011;36011;53.362;58.948;2024-03-29T07:52:39;1.08;;;0.70;;
49942;SDS011;36011;53.362;58.948;2024-03-29T07:55:41;2.10;;;0.63;;
49942;SDS011;36011;53.362;58.948;2024-03-29T07:58:43;1.05;;;0.80;;
49942;SDS011;36011;53.362;58.948;2024-03-29T08:01:47;1.85;;;1.15;;
49942;SDS011;36011;53.362;58.948;2024-03-29T08:04:52;1.10;;;1.00;;
49942;SDS011;36011;53.362;58.948;2024-03-29T08:07:53;1.27;;;0.93;;
49942;SDS011;36011;53.362;58.948;2024-03-29T08:10:56;1.10;;;0.98;;
49942;SDS011;36011;53.362;58.948;2024-03-29T08:13:59;1.15;;;0.75;;
49942;SDS011;36011;53.362;58.948;2024-03-29T08:17:04;1.25;;;0.80;;
49942;SDS011;36011;53.362;58.948;2024-03-29T08:20:08;1.70;;;1.05;;
49942;SDS011;36011;53.362;58.948;2024-03-29T08:23:10;1.52;;;0.90;;
49942;SDS011;36011;53.362;58.948;2024-03-29T08:26:14;2.28;;;0.90;;
49942;SDS011;36011;53.362;58.948;2024-03-29T08:29:15;1.13;;;0.98;;
49942;SDS011;36011;53.362;58.948;2024-03-29T08:32:17;1.45;;;1.00;;
49942;SDS011;36011;53.362;58.948;2024-03-29T08:35:19;2.80;;;1.15;;
49942;SDS011;36011;53.362;58.948;2024-03-29T08:41:28;1.42;;;0.95;;
49942;SDS011;36011;53.362;58.948;2024-03-29T08:44:33;1.67;;;1.10;;
49942;SDS011;36011;53.362;58.948;2024-03-29T08:47:34;1.55;;;0.90;;
49942;SDS011;36011;53.362;58.948;2024-03-29T08:50:38;2.38;;;0.70;;
49942;SDS011;36011;53.362;58.948;2024-03-29T08:53:40;1.50;;;0.90;;
49942;SDS011;36011;53.362;58.948;2024-03-29T08:56:46;2.35;;;1.17;;
49942;SDS011;36011;53.362;58.948;2024-03-29T08:59:48;0.80;;;0.80;;
49942;SDS011;36011;53.362;58.948;2024-03-29T09:02:52;1.38;;;1.00;;
49942;SDS011;36011;53.362;58.948;2024-03-29T09:05:54;1.40;;;0.98;;
49942;SDS011;36011;53.362;58.948;2024-03-29T09:08:56;1.40;;;0.98;;
49942;SDS011;36011;53.362;58.948;2024-03-29T09:11:57;1.33;;;0.95;;
49942;SDS011;36011;53.362;58.948;2024-03-29T09:14:59;1.52;;;1.00;;
49942;SDS011;36011;53.362;58.948;2024-03-29T09:18:03;0.75;;;0.70;;
49942;SDS011;36011;53.362;58.948;2024-03-29T09:21:20;2.20;;;0.90;;
49942;SDS011;36011;53.362;58.948;2024-03-29T09:24:24;1.08;;;0.75;;
49942;SDS011;36011;53.362;58.948;2024-03-29T09:27:28;3.92;;;1.40;;
49942;SDS011;36011;53.362;58.948;2024-03-29T09:30:32;2.67;;;1.20;;
49942;SDS011;36011;53.362;58.948;2024-03-29T09:33:37;0.80;;;0.73;;
49942;SDS011;36011;53.362;58.948;2024-03-29T09:36:42;1.77;;;1.00;;
49942;SDS011;36011;53.362;58.948;2024-03-29T09:39:49;3.78;;;1.27;;
49942;SDS011;36011;53.362;58.948;2024-03-29T09:42:50;2.30;;;1.15;;
49942;SDS011;36011;53.362;58.948;2024-03-29T09:45:52;1.42;;;1.10;;
49942;SDS011;36011;53.362;58.948;2024-03-29T09:48:55;1.48;;;1.02;;
49942;SDS011;36011;53.362;58.948;2024-03-29T09:51:59;11.70;;;3.83;;
49942;SDS011;36011;53.362;58.948;2024-03-29T09:55:01;1.80;;;0.90;;
49942;SDS011;36011;53.362;58.948;2024-03-29T09:58:09;1.15;;;1.05;;
49942;SDS011;36011;53.362;58.948;2024-03-29T10:01:10;2.50;;;1.08;;
49942;SDS011;36011;53.362;58.948;2024-03-29T10:04:11;3.45;;;1.20;;
49942;SDS011;36011;53.362;58.948;2024-03-29T10:07:17;2.35;;;0.90;;
49942;SDS011;36011;53.362;58.948;2024-03-29T10:10:19;2.20;;;1.10;;
49942;SDS011;36011;53.362;58.948;2024-03-29T10:13:21;2.63;;;1.23;;
49942;SDS011;36011;53.362;58.948;2024-03-29T10:16:23;1.83;;;1.00;;
49942;SDS011;36011;53.362;58.948;2024-03-29T10:19:27;1.35;;;0.90;;
49942;SDS011;36011;53.362;58.948;2024-03-29T10:22:30;2.10;;;0.90;;
49942;SDS011;36011;53.362;58.948;2024-03-29T10:26:02;2.78;;;1.00;;
49942;SDS011;36011;53.362;58.948;2024-03-29T10:29:49;1.02;;;0.85;;
49942;SDS011;36011;53.362;58.948;2024-03-29T10:33:00;2.90;;;1.30;;
49942;SDS011;36011;53.362;58.948;2024-03-29T10:36:13;1.57;;;0.80;;
49942;SDS011;36011;53.362;58.948;2024-03-29T10:39:31;0.95;;;0.80;;
49942;SDS011;36011;53.362;58.948;2024-03-29T10:42:38;1.65;;;1.00;;
49942;SDS011;36011;53.362;58.948;2024-03-29T10:45:47;1.83;;;0.98;;
49942;SDS011;36011;53.362;58.948;2024-03-29T10:48:55;1.48;;;1.08;;
49942;SDS011;36011;53.362;58.948;2024-03-29T10:52:00;1.00;;;0.80;;
49942;SDS011;36011;53.362;58.948;2024-03-29T10:55:11;1.33;;;1.10;;
49942;SDS011;36011;53.362;58.948;2024-03-29T10:58:17;2.83;;;0.80;;
49942;SDS011;36011;53.362;58.948;2024-03-29T11:01:26;1.13;;;0.75;;
49942;SDS011;36011;53.362;58.948;2024-03-29T11:04:34;4.45;;;0.90;;
49942;SDS011;36011;53.362;58.948;2024-03-29T11:07:43;1.38;;;0.70;;
49942;SDS011;36011;53.362;58.948;2024-03-29T11:10:47;1.25;;;0.75;;
49942;SDS011;36011;53.362;58.948;2024-03-29T11:14:02;2.58;;;0.98;;
49942;SDS011;36011;53.362;58.948;2024-03-29T11:17:09;2.15;;;1.10;;
49942;SDS011;36011;53.362;58.948;2024-03-29T11:20:20;0.95;;;0.80;;
49942;SDS011;36011;53.362;58.948;2024-03-29T11:23:26;0.80;;;0.80;;
49942;SDS011;36011;53.362;58.948;2024-03-29T11:26:29;1.33;;;1.02;;
49942;SDS011;36011;53.362;58.948;2024-03-29T11:29:35;6.40;;;1.10;;
49942;SDS011;36011;53.362;58.948;2024-03-29T11:32:43;1.08;;;0.98;;
49942;SDS011;36011;53.362;58.948;2024-03-29T11:35:46;1.27;;;0.95;;
49942;SDS011;36011;53.362;58.948;2024-03-29T11:38:52;0.93;;;0.88;;
49942;SDS011;36011;53.362;58.948;2024-03-29T11:41:57;0.75;;;0.75;;
49942;SDS011;36011;53.362;58.948;2024-03-29T11:45:05;1.20;;;0.93;;
49942;SDS011;36011;53.362;58.948;2024-03-29T11:48:08;2.08;;;0.93;;
49942;SDS011;36011;53.362;58.948;2024-03-29T11:51:18;1.20;;;1.05;;
49942;SDS011;36011;53.362;58.948;2024-03-29T11:54:28;1.30;;;0.95;;
49942;SDS011;36011;53.362;58.948;2024-03-29T12:01:10;0.88;;;0.70;;
49942;SDS011;36011;53.362;58.948;2024-03-29T12:04:20;2.22;;;0.98;;
49942;SDS011;36011;53.362;58.948;2024-03-29T12:07:32;0.77;;;0.73;;
49942;SDS011;36011;53.362;58.948;2024-03-29T12:10:48;2.42;;;1.02;;
49942;SDS011;36011;53.362;58.948;2024-03-29T12:14:01;1.33;;;0.82;;
49942;SDS011;36011;53.362;58.948;2024-03-29T12:17:15;0.80;;;0.80;;
49942;SDS011;36011;53.362;58.948;2024-03-29T12:20:19;2.00;;;0.90;;
49942;SDS011;36011;53.362;58.948;2024-03-29T12:23:39;2.40;;;1.25;;
49942;SDS011;36011;53.362;58.948;2024-03-29T12:31:12;2.50;;;1.55;;
49942;SDS011;36011;53.362;58.948;2024-03-29T12:34:23;2.45;;;0.98;;
49942;SDS011;36011;53.362;58.948;2024-03-29T12:37:35;1.08;;;1.08;;
49942;SDS011;36011;53.362;58.948;2024-03-29T12:40:38;1.08;;;0.98;;
49942;SDS011;36011;53.362;58.948;2024-03-29T12:43:47;0.90;;;0.80;;
49942;SDS011;36011;53.362;58.948;2024-03-29T12:46:55;1.63;;;1.00;;
49942;SDS011;36011;53.362;58.948;2024-03-29T12:49:58;2.78;;;1.17;;
49942;SDS011;36011;53.362;58.948;2024-03-29T12:53:00;0.95;;;0.90;;
49942;SDS011;36011;53.362;58.948;2024-03-29T12:56:06;1.40;;;1.30;;
49942;SDS011;36011;53.362;58.948;2024-03-29T12:59:07;1.33;;;1.17;;
49942;SDS011;36011;53.362;58.948;2024-03-29T13:02:09;4.80;;;1.42;;
49942;SDS011;36011;53.362;58.948;2024-03-29T13:05:14;1.58;;;1.35;;
49942;SDS011;36011;53.362;58.948;2024-03-29T13:08:22;1.67;;;1.30;;
49942;SDS011;36011;53.362;58.948;2024-03-29T13:11:23;2.58;;;1.40;;
49942;SDS011;36011;53.362;58.948;2024-03-29T13:14:31;4.47;;;2.45;;
49942;SDS011;36011;53.362;58.948;2024-03-29T13:17:35;4.00;;;1.73;;
49942;SDS011;36011;53.362;58.948;2024-03-29T13:20:37;2.78;;;1.52;;
49942;SDS011;36011;53.362;58.948;2024-03-29T13:23:43;2.75;;;1.80;;
49942;SDS011;36011;53.362;58.948;2024-03-29T13:26:50;3.83;;;1.83;;
49942;SDS011;36011;53.362;58.948;2024-03-29T13:29:57;5.07;;;2.10;;
49942;SDS011;36011;53.362;58.948;2024-03-29T13:33:01;3.70;;;1.70;;
49942;SDS011;36011;53.362;58.948;2024-03-29T13:36:07;3.78;;;1.85;;
49942;SDS011;36011;53.362;58.948;2024-03-29T13:39:11;4.40;;;2.47;;
49942;SDS011;36011;53.362;58.948;2024-03-29T13:42:14;5.47;;;2.85;;
49942;SDS011;36011;53.362;58.948;2024-03-29T13:45:16;4.63;;;1.67;;
49942;SDS011;36011;53.362;58.948;2024-03-29T13:48:18;2.47;;;1.80;;
49942;SDS011;36011;53.362;58.948;2024-03-29T13:51:27;3.05;;;1.95;;
49942;SDS011;36011;53.362;58.948;2024-03-29T13:54:34;3.38;;;1.48;;
49942;SDS011;36011;53.362;58.948;2024-03-29T13:57:38;2.53;;;1.55;;
49942;SDS011;36011;53.362;58.948;2024-03-29T14:00:44;2.83;;;1.40;;
49942;SDS011;36011;53.362;58.948;2024-03-29T14:03:48;2.40;;;1.30;;
49942;SDS011;36011;53.362;58.948;2024-03-29T14:06:53;1.20;;;1.00;;
49942;SDS011;36011;53.362;58.948;2024-03-29T14:09:54;4.55;;;2.30;;
49942;SDS011;36011;53.362;58.948;2024-03-29T14:13:00;3.35;;;2.13;;
49942;SDS011;36011;53.362;58.948;2024-03-29T14:16:05;4.05;;;2.38;;
49942;SDS011;36011;53.362;58.948;2024-03-29T14:19:10;2.08;;;1.27;;
49942;SDS011;36011;53.362;58.948;2024-03-29T14:22:16;3.17;;;1.90;;
49942;SDS011;36011;53.362;58.948;2024-03-29T14:25:21;2.88;;;1.48;;
49942;SDS011;36011;53.362;58.948;2024-03-29T14:28:24;2.53;;;1.95;;
49942;SDS011;36011;53.362;58.948;2024-03-29T14:31:31;7.45;;;2.42;;
49942;SDS011;36011;53.362;58.948;2024-03-29T14:34:40;3.45;;;1.60;;
49942;SDS011;36011;53.362;58.948;2024-03-29T14:37:49;2.72;;;1.75;;
49942;SDS011;36011;53.362;58.948;2024-03-29T14:40:51;2.15;;;1.90;;
49942;SDS011;36011;53.362;58.948;2024-03-29T14:43:55;4.53;;;1.88;;
49942;SDS011;36011;53.362;58.948;2024-03-29T14:47:02;4.70;;;2.22;;
49942;SDS011;36011;53.362;58.948;2024-03-29T14:50:03;2.50;;;1.80;;
49942;SDS011;36011;53.362;58.948;2024-03-29T14:53:06;3.33;;;1.90;;
49942;SDS011;36011;53.362;58.948;2024-03-29T14:56:11;2.05;;;1.55;;
49942;SDS011;36011;53.362;58.948;2024-03-29T14:59:18;2.67;;;1.38;;
49942;SDS011;36011;53.362;58.948;2024-03-29T15:02:28;1.73;;;1.45;;
49942;SDS011;36011;53.362;58.948;2024-03-29T15:05:40;2.10;;;1.50;;
49942;SDS011;36011;53.362;58.948;2024-03-29T15:08:54;3.35;;;1.23;;
49942;SDS011;36011;53.362;58.948;2024-03-29T15:11:59;2.40;;;1.30;;
49942;SDS011;36011;53.362;58.948;2024-03-29T15:15:07;1.70;;;1.60;;
49942;SDS011;36011;53.362;58.948;2024-03-29T15:18:12;3.58;;;1.73;;
49942;SDS011;36011;53.362;58.948;2024-03-29T15:21:31;2.63;;;1.80;;
49942;SDS011;36011;53.362;58.948;2024-03-29T15:24:36;5.75;;;2.22;;
49942;SDS011;36011;53.362;58.948;2024-03-29T15:27:42;5.88;;;2.58;;
49942;SDS011;36011;53.362;58.948;2024-03-29T15:31:12;4.35;;;1.95;;
49942;SDS011;36011;53.362;58.948;2024-03-29T15:34:18;2.00;;;1.45;;
49942;SDS011;36011;53.362;58.948;2024-03-29T15:37:25;2.60;;;1.70;;
49942;SDS011;36011;53.362;58.948;2024-03-29T15:40:26;3.17;;;1.42;;
49942;SDS011;36011;53.362;58.948;2024-03-29T15:43:33;2.38;;;1.60;;
49942;SDS011;36011;53.362;58.948;2024-03-29T15:46:44;4.25;;;1.63;;
49942;SDS011;36011;53.362;58.948;2024-03-29T15:49:46;4.25;;;1.85;;
49942;SDS011;36011;53.362;58.948;2024-03-29T15:52:50;4.28;;;1.83;;
49942;SDS011;36011;53.362;58.948;2024-03-29T15:55:51;3.80;;;1.77;;
49942;SDS011;36011;53.362;58.948;2024-03-29T15:58:53;3.08;;;1.52;;
49942;SDS011;36011;53.362;58.948;2024-03-29T16:01:54;6.20;;;2.17;;
49942;SDS011;36011;53.362;58.948;2024-03-29T16:05:02;2.33;;;1.60;;
49942;SDS011;36011;53.362;58.948;2024-03-29T16:08:05;5.13;;;1.98;;
49942;SDS011;36011;53.362;58.948;2024-03-29T16:11:12;4.68;;;2.17;;
49942;SDS011;36011;53.362;58.948;2024-03-29T16:14:18;6.13;;;1.80;;
49942;SDS011;36011;53.362;58.948;2024-03-29T16:17:21;3.57;;;1.80;;
49942;SDS011;36011;53.362;58.948;2024-03-29T16:20:26;4.70;;;2.60;;
49942;SDS011;36011;53.362;58.948;2024-03-29T16:23:28;3.70;;;2.40;;
49942;SDS011;36011;53.362;58.948;2024-03-29T16:26:35;3.88;;;2.20;;
49942;SDS011;36011;53.362;58.948;2024-03-29T16:29:39;3.33;;;2.20;;
49942;SDS011;36011;53.362;58.948;2024-03-29T16:32:44;4.05;;;1.75;;
49942;SDS011;36011;53.362;58.948;2024-03-29T16:35:49;4.07;;;1.70;;
49942;SDS011;36011;53.362;58.948;2024-03-29T16:38:58;2.10;;;1.50;;
49942;SDS011;36011;53.362;58.948;2024-03-29T16:42:05;4.05;;;1.90;;
49942;SDS011;36011;53.362;58.948;2024-03-29T16:45:09;4.13;;;2.10;;
49942;SDS011;36011;53.362;58.948;2024-03-29T16:48:10;5.90;;;1.80;;
49942;SDS011;36011;53.362;58.948;2024-03-29T16:51:15;3.10;;;1.75;;
49942;SDS011;36011;53.362;58.948;2024-03-29T16:57:22;3.50;;;1.95;;
49942;SDS011;36011;53.362;58.948;2024-03-29T17:00:29;1.92;;;1.42;;
49942;SDS011;36011;53.362;58.948;2024-03-29T17:03:33;4.45;;;2.10;;
49942;SDS011;36011;53.362;58.948;2024-03-29T17:06:37;4.15;;;2.03;;
49942;SDS011;36011;53.362;58.948;2024-03-29T17:09:42;7.00;;;2.22;;
49942;SDS011;36011;53.362;58.948;2024-03-29T17:12:48;3.85;;;1.90;;
49942;SDS011;36011;53.362;58.948;2024-03-29T17:15:49;3.35;;;1.83;;
49942;SDS011;36011;53.362;58.948;2024-03-29T17:18:53;4.63;;;2.15;;
49942;SDS011;36011;53.362;58.948;2024-03-29T17:21:57;10.20;;;2.15;;
49942;SDS011;36011;53.362;58.948;2024-03-29T17:25:01;7.00;;;2.72;;
49942;SDS011;36011;53.362;58.948;2024-03-29T17:28:05;7.72;;;2.75;;
49942;SDS011;36011;53.362;58.948;2024-03-29T17:31:12;7.68;;;4.07;;
49942;SDS011;36011;53.362;58.948;2024-03-29T17:34:19;6.97;;;3.92;;
49942;SDS011;36011;53.362;58.948;2024-03-29T17:37:27;5.80;;;2.58;;
49942;SDS011;36011;53.362;58.948;2024-03-29T17:40:33;3.30;;;2.17;;
49942;SDS011;36011;53.362;58.948;2024-03-29T17:43:34;6.22;;;2.35;;
49942;SDS011;36011;53.362;58.948;2024-03-29T17:46:44;5.95;;;2.60;;
49942;SDS011;36011;53.362;58.948;2024-03-29T17:49:57;2.13;;;1.90;;
49942;SDS011;36011;53.362;58.948;2024-03-29T17:53:03;2.63;;;1.58;;
49942;SDS011;36011;53.362;58.948;2024-03-29T17:56:05;3.63;;;1.42;;
49942;SDS011;36011;53.362;58.948;2024-03-29T17:59:07;3.75;;;1.40;;
49942;SDS011;36011;53.362;58.948;2024-03-29T18:02:08;3.90;;;1.95;;
49942;SDS011;36011;53.362;58.948;2024-03-29T18:05:10;2.28;;;1.20;;
49942;SDS011;36011;53.362;58.948;2024-03-29T18:08:11;2.95;;;1.35;;
49942;SDS011;36011;53.362;58.948;2024-03-29T18:11:15;1.77;;;1.17;;
49942;SDS011;36011;53.362;58.948;2024-03-29T18:14:22;3.95;;;1.58;;
49942;SDS011;36011;53.362;58.948;2024-03-29T18:17:23;1.70;;;1.10;;
49942;SDS011;36011;53.362;58.948;2024-03-29T18:20:27;2.35;;;1.40;;
49942;SDS011;36011;53.362;58.948;2024-03-29T18:23:28;2.75;;;1.50;;
49942;SDS011;36011;53.362;58.948;2024-03-29T18:26:35;2.17;;;1.30;;
49942;SDS011;36011;53.362;58.948;2024-03-29T18:29:42;3.17;;;1.50;;
49942;SDS011;36011;53.362;58.948;2024-03-29T18:32:49;1.60;;;1.33;;
49942;SDS011;36011;53.362;58.948;2024-03-29T18:35:58;2.25;;;1.38;;
49942;SDS011;36011;53.362;58.948;2024-03-29T18:39:02;1.50;;;1.23;;
49942;SDS011;36011;53.362;58.948;2024-03-29T18:42:05;3.50;;;1.48;;
49942;SDS011;36011;53.362;58.948;2024-03-29T18:45:10;2.58;;;1.20;;
49942;SDS011;36011;53.362;58.948;2024-03-29T18:48:12;1.90;;;1.25;;